createdAt,value
2022-10-24T00:00:03.378Z,16.10
2022-10-24T00:03:07.516Z,14.40
2022-10-24T00:08:49.471Z,15.70
2022-10-24T00:11:28.479Z,15.80
2022-10-24T00:14:10.292Z,16.60
2022-10-24T00:16:50.195Z,16.40
2022-10-24T00:19:44.368Z,15.20
2022-10-24T00:22:29.060Z,16.50
2022-10-24T00:25:12.725Z,15.50
2022-10-24T00:27:55.272Z,15.00
2022-10-24T00:30:40.186Z,15.20
2022-10-24T00:33:20.849Z,13.70
2022-10-24T00:36:06.049Z,15.10
2022-10-24T00:38:50.039Z,14.10
2022-10-24T00:41:42.088Z,15.20
2022-10-24T00:44:49.632Z,14.60
2022-10-24T00:47:36.572Z,14.70
2022-10-24T00:51:02.874Z,13.90
2022-10-24T00:53:51.510Z,14.20
2022-10-24T00:56:51.321Z,16.70
2022-10-24T00:59:54.702Z,14.70
2022-10-24T01:02:30.692Z,14.40
2022-10-24T01:05:30.101Z,15.50
2022-10-24T01:12:51.852Z,15.60
2022-10-24T01:15:58.314Z,16.40
2022-10-24T01:19:15.662Z,16.60
2022-10-24T01:22:14.555Z,17.00
2022-10-24T01:25:38.576Z,16.00
2022-10-24T01:28:52.145Z,16.40
2022-10-24T01:32:23.815Z,15.00
2022-10-24T01:38:41.533Z,14.50
2022-10-24T01:41:43.315Z,15.40
2022-10-24T01:45:00.184Z,15.70
2022-10-24T01:47:58.298Z,16.30
2022-10-24T01:51:05.380Z,17.30
2022-10-24T01:56:57.068Z,18.90
2022-10-24T01:59:29.784Z,18.60
2022-10-24T02:02:59.588Z,17.80
2022-10-24T02:06:03.430Z,16.00
2022-10-24T02:09:12.881Z,16.30
2022-10-24T02:12:32.158Z,16.80
2022-10-24T02:15:36.221Z,18.50
2022-10-24T02:18:26.581Z,16.00
2022-10-24T02:21:47.258Z,16.20
2022-10-24T02:24:51.670Z,15.80
2022-10-24T02:28:04.062Z,16.20
2022-10-24T02:32:11.008Z,17.80
2022-10-24T02:34:20.206Z,16.50
2022-10-24T02:37:18.694Z,15.90
2022-10-24T02:41:24.447Z,16.60
2022-10-24T02:43:59.027Z,17.70
2022-10-24T02:46:44.544Z,17.00
2022-10-24T02:49:25.989Z,15.90
2022-10-24T02:52:26.682Z,18.20
2022-10-24T02:55:34.646Z,18.70
2022-10-24T02:58:37.838Z,18.60
2022-10-24T03:01:18.421Z,18.30
2022-10-24T03:04:06.898Z,17.60
2022-10-24T03:06:46.955Z,17.90
2022-10-24T03:09:42.547Z,16.70
2022-10-24T03:12:33.001Z,18.70
2022-10-24T03:15:13.978Z,19.70
2022-10-24T03:17:50.297Z,22.90
2022-10-24T03:20:29.321Z,23.40
2022-10-24T03:23:15.267Z,24.50
2022-10-24T03:26:09.546Z,23.60
2022-10-24T03:28:50.593Z,22.50
2022-10-24T03:31:32.326Z,22.40
2022-10-24T03:34:12.288Z,21.50
2022-10-24T03:37:07.590Z,20.00
2022-10-24T03:39:48.348Z,20.40
2022-10-24T03:42:22.086Z,17.70
2022-10-24T03:44:57.339Z,16.30
2022-10-24T03:47:45.651Z,18.40
2022-10-24T03:50:47.503Z,16.70
2022-10-24T03:53:36.105Z,16.00
2022-10-24T03:56:22.161Z,18.10
2022-10-24T03:58:56.480Z,18.50
2022-10-24T04:01:54.471Z,17.20
2022-10-24T04:08:08.204Z,16.80
2022-10-24T04:10:53.492Z,16.20
2022-10-24T04:13:45.283Z,16.30
2022-10-24T04:16:48.635Z,16.40
2022-10-24T04:19:37.270Z,16.30
2022-10-24T04:22:24.802Z,15.10
2022-10-24T04:25:11.160Z,15.80
2022-10-24T04:27:49.811Z,16.60
2022-10-24T04:30:21.680Z,16.50
2022-10-24T04:32:51.112Z,16.40
2022-10-24T04:35:37.079Z,15.80
2022-10-24T04:38:13.972Z,14.80
2022-10-24T04:41:13.925Z,15.00
2022-10-24T04:43:46.960Z,15.80
2022-10-24T04:46:31.436Z,15.90
2022-10-24T04:49:16.290Z,15.40
2022-10-24T04:52:03.504Z,15.30
2022-10-24T04:54:50.707Z,16.90
2022-10-24T04:57:49.806Z,17.70
2022-10-24T05:00:59.286Z,16.70
2022-10-24T05:03:40.951Z,15.80
2022-10-24T05:06:27.292Z,15.40
2022-10-24T05:09:46.069Z,15.50
2022-10-24T05:13:01.050Z,13.90
2022-10-24T05:16:08.485Z,14.60
2022-10-24T05:18:54.470Z,15.10
2022-10-24T05:24:22.143Z,19.50
2022-10-24T05:27:01.923Z,21.60
2022-10-24T05:30:23.033Z,35.70
2022-10-24T05:33:54.243Z,44.50
2022-10-24T05:36:42.217Z,59.10
2022-10-24T05:42:41.742Z,34.60
2022-10-24T05:45:27.006Z,28.80
2022-10-24T05:48:16.339Z,33.00
2022-10-24T05:50:58.004Z,38.80
2022-10-24T05:53:31.499Z,34.70
2022-10-24T05:56:14.365Z,36.90
2022-10-24T05:58:59.414Z,41.10
2022-10-24T06:01:40.438Z,40.30
2022-10-24T06:04:36.655Z,39.50
2022-10-24T06:07:13.635Z,41.10
2022-10-24T06:10:04.807Z,43.10
2022-10-24T06:12:48.624Z,37.50
2022-10-24T06:15:39.762Z,34.90
2022-10-24T06:18:36.011Z,34.80
2022-10-24T06:21:11.078Z,33.40
2022-10-24T06:23:53.976Z,38.20
2022-10-24T06:26:26.301Z,29.40
2022-10-24T06:29:02.409Z,28.30
2022-10-24T06:31:44.701Z,30.70
2022-10-24T06:34:28.365Z,35.40
2022-10-24T06:37:04.362Z,41.70
2022-10-24T06:40:02.789Z,31.90
2022-10-24T06:42:56.291Z,30.80
2022-10-24T06:45:31.437Z,24.60
2022-10-24T06:48:24.305Z,20.60
2022-10-24T06:51:20.607Z,21.20
2022-10-24T06:53:57.255Z,22.00
2022-10-24T06:56:46.901Z,24.10
2022-10-24T06:59:47.578Z,24.90
2022-10-24T07:02:26.315Z,24.60
2022-10-24T07:05:06.513Z,25.40
2022-10-24T07:07:45.068Z,27.20
2022-10-24T07:10:30.558Z,27.80
2022-10-24T07:14:03.448Z,29.00
2022-10-24T07:16:29.261Z,27.70
2022-10-24T07:19:11.920Z,26.40
2022-10-24T07:21:56.222Z,25.90
2022-10-24T07:24:29.691Z,24.60
2022-10-24T07:27:14.934Z,25.40
2022-10-24T07:29:53.685Z,22.80
2022-10-24T07:32:52.268Z,23.90
2022-10-24T07:35:45.453Z,21.00
2022-10-24T07:38:18.857Z,22.40
2022-10-24T07:41:05.070Z,21.60
2022-10-24T07:44:34.424Z,22.60
2022-10-24T07:47:26.253Z,24.30
2022-10-24T07:50:17.061Z,20.50
2022-10-24T07:53:20.060Z,19.40
2022-10-24T07:56:27.747Z,18.50
2022-10-24T07:59:40.866Z,17.80
2022-10-24T08:02:33.111Z,17.40
2022-10-24T08:05:22.168Z,16.50
2022-10-24T08:08:24.681Z,15.90
2022-10-24T08:11:08.600Z,15.70
2022-10-24T08:13:54.655Z,16.10
2022-10-24T08:16:38.835Z,16.90
2022-10-24T08:19:15.240Z,16.10
2022-10-24T08:21:50.551Z,16.10
2022-10-24T08:24:25.217Z,15.80
2022-10-24T08:26:58.443Z,15.70
2022-10-24T08:29:28.007Z,16.40
2022-10-24T08:32:04.080Z,14.60
2022-10-24T08:34:38.805Z,14.30
2022-10-24T08:37:07.854Z,12.70
2022-10-24T08:39:38.525Z,13.10
2022-10-24T08:42:21.352Z,14.90
2022-10-24T08:45:00.488Z,13.30
2022-10-24T08:48:08.631Z,12.70
2022-10-24T08:50:45.258Z,12.60
2022-10-24T08:53:40.075Z,11.80
2022-10-24T08:56:14.028Z,10.50
2022-10-24T08:58:46.600Z,8.60
2022-10-24T09:01:34.616Z,8.00
2022-10-24T09:04:09.560Z,7.90
2022-10-24T09:06:44.976Z,7.40
2022-10-24T09:09:31.963Z,8.30
2022-10-24T09:12:33.210Z,7.00
2022-10-24T09:15:17.168Z,7.90
2022-10-24T09:18:10.286Z,8.90
2022-10-24T09:20:58.309Z,9.20
2022-10-24T09:23:47.758Z,9.40
2022-10-24T09:26:41.393Z,9.10
2022-10-24T09:29:13.300Z,7.80
2022-10-24T09:31:54.006Z,8.00
2022-10-24T09:35:30.055Z,5.80
2022-10-24T09:38:25.634Z,7.00
2022-10-24T09:41:04.012Z,8.00
2022-10-24T09:43:47.053Z,6.70
2022-10-24T09:46:47.640Z,8.00
2022-10-24T09:49:41.520Z,7.10
2022-10-24T09:52:27.660Z,8.10
2022-10-24T09:55:29.461Z,6.90
2022-10-24T09:58:10.809Z,7.20
2022-10-24T10:00:48.688Z,7.30
2022-10-24T10:03:36.891Z,6.50
2022-10-24T10:06:23.961Z,9.90
2022-10-24T10:09:20.221Z,6.60
2022-10-24T10:12:02.838Z,9.50
2022-10-24T10:14:41.777Z,6.60
2022-10-24T10:17:37.016Z,5.90
2022-10-24T10:20:25.350Z,6.50
2022-10-24T10:22:59.235Z,6.90
2022-10-24T10:25:34.195Z,6.30
2022-10-24T10:28:04.575Z,5.90
2022-10-24T10:30:38.224Z,5.50
2022-10-24T10:37:17.970Z,4.60
2022-10-24T10:40:27.592Z,4.80
2022-10-24T10:43:18.679Z,5.70
2022-10-24T10:46:31.631Z,4.80
2022-10-24T10:49:09.709Z,4.80
2022-10-24T10:51:58.976Z,4.10
2022-10-24T10:54:40.858Z,4.80
2022-10-24T10:57:19.242Z,5.00
2022-10-24T11:01:00.783Z,5.60
2022-10-24T11:04:08.268Z,5.50
2022-10-24T11:07:14.668Z,6.20
2022-10-24T11:09:53.190Z,7.60
2022-10-24T11:12:46.956Z,6.10
2022-10-24T11:15:36.545Z,5.30
2022-10-24T11:18:39.494Z,5.80
2022-10-24T11:21:15.138Z,5.40
2022-10-24T11:24:04.202Z,4.70
2022-10-24T11:26:45.476Z,4.40
2022-10-24T11:31:57.528Z,4.70
2022-10-24T11:34:34.169Z,4.50
2022-10-24T11:37:20.395Z,5.20
2022-10-24T11:40:15.149Z,7.90
2022-10-24T11:43:02.268Z,5.50
2022-10-24T11:45:46.117Z,5.10
2022-10-24T11:48:30.074Z,4.70
2022-10-24T11:51:20.755Z,5.30
2022-10-24T11:54:14.672Z,4.20
2022-10-24T11:57:06.811Z,12.30
2022-10-24T11:59:38.506Z,7.10
2022-10-24T12:03:04.265Z,4.80
2022-10-24T12:05:59.090Z,4.20
2022-10-24T12:08:55.513Z,4.70
2022-10-24T12:12:19.697Z,5.20
2022-10-24T12:15:05.862Z,4.10
2022-10-24T12:18:13.001Z,5.00
2022-10-24T12:20:45.218Z,5.60
2022-10-24T12:23:27.687Z,6.00
2022-10-24T12:26:15.150Z,6.40
2022-10-24T12:28:58.616Z,5.60
2022-10-24T12:31:38.840Z,5.70
2022-10-24T12:34:24.248Z,4.70
2022-10-24T12:37:19.659Z,5.10
2022-10-24T12:39:54.839Z,4.20
2022-10-24T12:42:36.693Z,4.30
2022-10-24T12:45:06.492Z,4.30
2022-10-24T12:47:44.170Z,5.10
2022-10-24T12:50:28.556Z,4.70
2022-10-24T12:53:38.478Z,24.20
2022-10-24T12:56:15.108Z,5.70
2022-10-24T12:59:04.327Z,4.60
2022-10-24T13:01:44.247Z,4.60
2022-10-24T13:05:08.467Z,5.30
2022-10-24T13:08:06.931Z,4.80
2022-10-24T13:11:29.117Z,5.20
2022-10-24T13:14:38.344Z,4.50
2022-10-24T13:17:33.961Z,4.60
2022-10-24T13:20:24.243Z,4.40
2022-10-24T13:23:23.609Z,5.30
2022-10-24T13:25:58.976Z,6.10
2022-10-24T13:28:31.672Z,5.20
2022-10-24T13:31:01.049Z,5.70
2022-10-24T13:33:45.901Z,5.80
2022-10-24T13:36:28.620Z,6.80
2022-10-24T13:39:16.143Z,5.90
2022-10-24T13:42:37.636Z,6.70
2022-10-24T13:45:55.989Z,4.80
2022-10-24T13:48:34.438Z,5.10
2022-10-24T14:00:21.860Z,4.40
2022-10-24T14:03:43.155Z,3.90
2022-10-24T14:06:22.123Z,4.60
2022-10-24T14:13:09.772Z,4.40
2022-10-24T14:16:11.112Z,7.80
2022-10-24T14:23:32.104Z,6.20
2022-10-24T14:26:09.734Z,5.60
2022-10-24T14:29:01.164Z,5.20
2022-10-24T14:31:40.055Z,6.70
2022-10-24T14:34:24.673Z,13.70
2022-10-24T14:37:03.935Z,11.00
2022-10-24T14:39:40.908Z,9.20
2022-10-24T14:42:52.263Z,9.90
2022-10-24T14:45:58.807Z,8.50
2022-10-24T14:49:46.288Z,6.80
2022-10-24T14:52:54.384Z,7.10
2022-10-24T14:59:24.936Z,7.10
2022-10-24T15:02:18.574Z,6.60
2022-10-24T15:05:17.413Z,7.00
2022-10-24T15:08:24.245Z,8.00
2022-10-24T15:11:52.840Z,9.00
2022-10-24T15:32:51.915Z,7.50
2022-10-24T15:35:57.143Z,8.70
2022-10-24T16:05:51.101Z,15.10
2022-10-24T16:09:40.539Z,13.70
2022-10-24T16:15:53.688Z,14.60
2022-10-24T16:18:24.289Z,14.40
2022-10-24T16:21:05.326Z,17.50
2022-10-24T16:27:44.658Z,19.20
2022-10-24T16:39:12.196Z,16.00
2022-10-24T16:42:46.517Z,15.30
2022-10-24T17:36:13.453Z,8.40
2022-10-24T18:39:19.422Z,13.20
2022-10-24T18:42:39.525Z,10.60
2022-10-24T18:59:12.714Z,15.10
2022-10-24T19:06:00.263Z,17.70
2022-10-24T19:08:54.171Z,17.50
2022-10-24T19:12:00.976Z,13.30
2022-10-24T19:15:04.933Z,13.50
2022-10-24T19:18:16.533Z,14.20
2022-10-24T19:21:06.026Z,15.70
2022-10-24T19:27:59.154Z,14.10
2022-10-24T19:31:34.096Z,16.00
2022-10-24T19:34:54.784Z,16.50
2022-10-24T19:37:49.680Z,14.70
2022-10-24T19:42:14.377Z,13.70
2022-10-24T19:45:20.265Z,14.30
2022-10-24T19:48:28.675Z,15.30
2022-10-24T19:52:26.707Z,15.20
2022-10-24T20:07:38.324Z,32.00
2022-10-24T20:14:32.528Z,20.70
2022-10-24T21:14:47.386Z,8.90
2022-10-24T21:17:47.167Z,7.50
2022-10-24T21:21:12.943Z,7.40
2022-10-24T21:24:14.334Z,7.70
2022-10-24T21:27:37.867Z,7.40
2022-10-24T21:31:09.099Z,7.60
2022-10-24T21:38:09.384Z,8.90
2022-10-24T22:09:35.455Z,8.50
2022-10-24T22:12:46.413Z,7.70
2022-10-24T22:22:40.346Z,7.50
2022-10-24T22:51:00.163Z,8.20
2022-10-24T23:04:24.109Z,8.60
2022-10-24T23:12:16.850Z,8.60
2022-10-24T23:14:54.916Z,7.20
2022-10-24T23:35:58.446Z,9.70
2022-10-24T23:41:42.237Z,9.60
2022-10-24T23:45:07.354Z,9.60
2022-10-24T23:48:21.751Z,9.50
2022-10-24T23:51:49.244Z,9.60
2022-10-24T23:55:26.954Z,9.30
2022-10-24T23:58:53.602Z,9.50
